Time;durP1;ratioP1;P1;durP2;ratioP2;P2;SDS_P1;SDS_P2;PMS_P1;PMS_P2;Temp;Humidity;BMP_temperature;BMP_pressure;BME280_temperature;BME280_humidity;BME280_pressure;Samples;Min_cycle;Max_cycle;Signal;HPM_P1;HPM_P2
2022/04/07 00:00:58;;;;;;;15.02;3.40;;;8.90;1.00;;;;;;5137866;27;20480;-42
2022/04/07 00:03:23;;;;;;;8.23;2.30;;;8.90;1.00;;;;;;5118866;27;20099;-41
2022/04/07 00:05:49;;;;;;;13.15;4.07;;;8.90;1.00;;;;;;5137908;27;20499;-41
2022/04/07 00:08:15;;;;;;;13.25;3.72;;;9.00;1.00;;;;;;5137279;27;20072;-42
2022/04/07 00:10:41;;;;;;;9.73;2.47;;;9.00;99.90;;;;;;5118956;27;20039;-41
2022/04/07 00:13:07;;;;;;;7.78;2.67;;;9.00;99.90;;;;;;5102080;27;20046;-41
2022/04/07 00:15:33;;;;;;;11.50;2.75;;;9.00;99.90;;;;;;5137197;27;20519;-42
2022/04/07 00:17:58;;;;;;;16.75;3.05;;;9.00;99.90;;;;;;5135755;27;20051;-42
2022/04/07 00:20:27;;;;;;;16.33;3.38;;;9.00;99.90;;;;;;5136941;27;20047;-42
2022/04/07 00:22:53;;;;;;;19.55;4.18;;;9.00;99.90;;;;;;5118780;27;20058;-42
2022/04/07 00:25:19;;;;;;;9.93;2.38;;;8.90;99.90;;;;;;5136883;27;20054;-42
2022/04/07 00:27:45;;;;;;;8.23;2.10;;;8.90;99.90;;;;;;5136866;27;20043;-42
2022/04/07 00:30:13;;;;;;;12.60;1.85;;;8.90;99.90;;;;;;5137087;27;20092;-41
2022/04/07 00:32:46;;;;;;;5.82;1.33;;;8.90;99.90;;;;;;5137357;27;20043;-42
2022/04/07 00:35:12;;;;;;;8.10;2.47;;;8.80;99.90;;;;;;5136686;27;20453;-42
2022/04/07 00:37:38;;;;;;;12.20;2.95;;;8.90;99.90;;;;;;5136979;27;20047;-42
2022/04/07 00:40:06;;;;;;;9.60;1.80;;;8.80;99.90;;;;;;5136558;27;20039;-42
2022/04/07 00:42:32;;;;;;;9.07;2.67;;;8.90;99.90;;;;;;5118194;27;20488;-42
2022/04/07 00:44:59;;;;;;;9.68;1.85;;;8.90;99.90;;;;;;5136238;27;20117;-42
2022/04/07 00:47:27;;;;;;;14.65;2.67;;;8.90;99.90;;;;;;5102264;27;20051;-42
2022/04/07 00:49:53;;;;;;;13.57;2.67;;;8.90;99.90;;;;;;5136798;27;20180;-42
2022/04/07 00:52:19;;;;;;;10.75;1.90;;;9.00;99.90;;;;;;5136378;27;20099;-42
2022/04/07 00:54:45;;;;;;;15.98;2.67;;;8.90;99.90;;;;;;5136348;27;20043;-42
2022/04/07 00:57:11;;;;;;;14.75;2.50;;;8.90;99.90;;;;;;5101737;27;20070;-42
2022/04/07 00:59:39;;;;;;;10.70;2.53;;;8.90;99.90;;;;;;5136207;27;20480;-42
2022/04/07 01:02:06;;;;;;;16.55;3.53;;;8.90;99.90;;;;;;5136194;27;20051;-41
2022/04/07 01:04:33;;;;;;;13.70;2.55;;;8.90;99.90;;;;;;5117586;27;20139;-42
2022/04/07 01:06:59;;;;;;;10.75;2.80;;;8.90;99.90;;;;;;5117726;27;20099;-43
2022/04/07 01:09:24;;;;;;;14.55;2.85;;;8.90;99.90;;;;;;5118327;27;20039;-42
2022/04/07 01:11:52;;;;;;;14.10;3.08;;;8.90;99.90;;;;;;5117899;27;20049;-42
2022/04/07 01:14:18;;;;;;;14.93;2.33;;;8.80;99.90;;;;;;5117603;27;20121;-42
2022/04/07 01:16:44;;;;;;;16.70;2.78;;;8.70;1.00;;;;;;5118097;27;20039;-40
2022/04/07 01:19:09;;;;;;;21.13;3.78;;;8.60;17.00;;;;;;5117587;27;20050;-40
2022/04/07 01:21:37;;;;;;;17.27;3.40;;;8.40;99.90;;;;;;5136279;27;20046;-40
2022/04/07 01:24:08;;;;;;;22.27;4.07;;;8.40;99.90;;;;;;5117675;27;20054;-40
2022/04/07 01:26:39;;;;;;;21.00;4.13;;;8.40;99.90;;;;;;5117358;27;20054;-41
2022/04/07 01:29:13;;;;;;;18.48;2.75;;;8.40;99.90;;;;;;5135893;27;20051;-39
2022/04/07 01:31:39;;;;;;;14.27;3.55;;;8.40;99.90;;;;;;5136315;27;20043;-40
2022/04/07 01:34:12;;;;;;;20.80;3.63;;;8.40;99.90;;;;;;5135478;27;20547;-40
2022/04/07 01:36:41;;;;;;;17.98;2.95;;;8.40;99.90;;;;;;5135674;27;20057;-40
2022/04/07 01:39:09;;;;;;;8.63;2.20;;;8.50;99.90;;;;;;5135530;27;20093;-41
2022/04/07 01:41:40;;;;;;;21.80;4.65;;;8.40;99.90;;;;;;5135612;27;20043;-40
2022/04/07 01:44:09;;;;;;;27.25;4.07;;;8.40;99.90;;;;;;5135375;27;20050;-40
2022/04/07 01:46:36;;;;;;;18.67;3.50;;;8.60;99.90;;;;;;5117021;27;20051;-39
2022/04/07 01:49:02;;;;;;;11.23;3.05;;;8.60;98.60;;;;;;5135596;27;20049;-39
2022/04/07 01:51:29;;;;;;;17.02;4.40;;;8.60;49.60;;;;;;5135248;27;20043;-40
2022/04/07 01:53:56;;;;;;;15.13;3.20;;;8.60;19.20;;;;;;5135489;27;20100;-39
2022/04/07 01:56:23;;;;;;;15.13;3.25;;;8.60;1.00;;;;;;5135193;27;20050;-40
2022/04/07 01:58:49;;;;;;;20.38;4.40;;;8.70;1.00;;;;;;5135743;27;20047;-40
2022/04/07 02:01:16;;;;;;;27.90;5.05;;;8.70;1.00;;;;;;5135013;27;20035;-40
2022/04/07 02:03:42;;;;;;;32.40;5.80;;;8.60;1.00;;;;;;5116455;27;20046;-40
2022/04/07 02:06:16;;;;;;;24.88;3.67;;;8.60;1.00;;;;;;5135066;27;20047;-40
2022/04/07 02:08:42;;;;;;;18.67;3.15;;;8.60;1.00;;;;;;5135024;27;20046;-40
2022/04/07 02:11:10;;;;;;;18.33;3.38;;;8.60;1.00;;;;;;5099688;27;20058;-40
2022/04/07 02:13:40;;;;;;;22.30;4.25;;;8.60;1.00;;;;;;5134971;27;20050;-40
2022/04/07 02:16:07;;;;;;;26.45;3.55;;;8.60;1.00;;;;;;5099510;27;20051;-41
2022/04/07 02:18:33;;;;;;;20.92;4.05;;;8.70;1.00;;;;;;5134851;27;20078;-40
2022/04/07 02:20:59;;;;;;;15.82;2.97;;;8.70;99.90;;;;;;5134753;27;20078;-41
2022/04/07 02:23:26;;;;;;;23.15;4.00;;;8.70;99.90;;;;;;5117571;27;20475;-41
2022/04/07 02:25:52;;;;;;;19.15;3.22;;;8.80;99.90;;;;;;5134775;27;20074;-41
2022/04/07 02:28:18;;;;;;;21.90;4.32;;;8.80;99.90;;;;;;5135259;27;20473;-41
2022/04/07 02:30:45;;;;;;;18.50;3.55;;;8.70;99.90;;;;;;5135524;27;20205;-42
2022/04/07 02:33:11;;;;;;;27.23;4.50;;;8.60;99.90;;;;;;5134600;27;20126;-42
2022/04/07 02:35:37;;;;;;;20.50;3.53;;;8.50;1.00;;;;;;5135213;28;20096;-41
2022/04/07 02:38:03;;;;;;;19.23;3.72;;;8.60;99.90;;;;;;5134626;28;20043;-40
2022/04/07 02:40:29;;;;;;;23.73;4.32;;;8.70;99.90;;;;;;5116697;28;20050;-40
2022/04/07 02:42:54;;;;;;;26.60;4.25;;;8.60;1.00;;;;;;5121221;27;20062;-40
2022/04/07 02:45:20;;;;;;;30.58;5.20;;;8.60;1.00;;;;;;5139131;27;20082;-40
2022/04/07 02:47:46;;;;;;;20.20;3.53;;;8.50;1.00;;;;;;5139641;27;20088;-40
2022/04/07 02:50:11;;;;;;;23.52;4.00;;;8.60;1.00;;;;;;5138758;27;20488;-40
2022/04/07 02:52:37;;;;;;;29.05;4.85;;;8.60;1.00;;;;;;5139025;27;20126;-40
2022/04/07 02:55:04;;;;;;;24.55;3.92;;;8.60;1.00;;;;;;5103361;27;20047;-40
2022/04/07 02:57:30;;;;;;;23.30;4.40;;;8.60;1.00;;;;;;5138624;27;20047;-40
2022/04/07 02:59:58;;;;;;;27.13;3.63;;;8.60;1.00;;;;;;5119918;27;20481;-40
2022/04/07 03:02:24;;;;;;;16.90;3.22;;;8.60;1.00;;;;;;5121272;27;20055;-41
2022/04/07 03:04:50;;;;;;;15.20;3.35;;;8.60;99.90;;;;;;5138158;27;20063;-41
2022/04/07 03:07:16;;;;;;;19.27;3.72;;;8.60;99.90;;;;;;5138504;27;20381;-41
2022/04/07 03:09:42;;;;;;;21.58;3.65;;;8.70;99.90;;;;;;5138806;27;20050;-40
2022/04/07 03:12:08;;;;;;;27.75;4.57;;;8.70;99.90;;;;;;5138380;27;20488;-41
2022/04/07 03:14:34;;;;;;;16.05;3.28;;;8.70;99.90;;;;;;5120024;27;20051;-41
2022/04/07 03:17:00;;;;;;;20.00;3.65;;;8.70;99.90;;;;;;5138644;27;20050;-40
2022/04/07 03:19:25;;;;;;;17.90;3.80;;;8.70;99.90;;;;;;5138287;27;20055;-41
2022/04/07 03:21:51;;;;;;;18.63;3.45;;;8.80;99.90;;;;;;5119497;27;20047;-40
2022/04/07 03:24:17;;;;;;;25.85;4.18;;;8.80;83.10;;;;;;5119856;27;20043;-41
2022/04/07 03:26:42;;;;;;;21.35;3.25;;;8.90;87.60;;;;;;5138036;27;20047;-41
2022/04/07 03:29:08;;;;;;;13.75;2.97;;;8.80;85.40;;;;;;5138050;27;20043;-42
2022/04/07 03:31:34;;;;;;;21.45;3.95;;;8.90;1.00;;;;;;5086805;27;20086;-41
2022/04/07 03:34:01;;;;;;;16.00;2.75;;;8.90;33.20;;;;;;5137865;27;20096;-42
2022/04/07 03:36:26;;;;;;;14.48;3.22;;;8.80;50.90;;;;;;5137921;27;20043;-42
2022/04/07 03:38:52;;;;;;;18.98;4.88;;;8.90;1.00;;;;;;5137595;27;20047;-42
2022/04/07 03:41:18;;;;;;;10.13;2.78;;;9.00;1.00;;;;;;5137757;27;20047;-42
2022/04/07 03:43:44;;;;;;;17.48;3.00;;;9.00;99.90;;;;;;5138057;27;20099;-42
2022/04/07 03:46:10;;;;;;;16.77;3.20;;;9.10;1.00;;;;;;5138033;27;20129;-41
2022/04/07 03:48:36;;;;;;;19.17;4.10;;;9.00;99.90;;;;;;5138209;27;20047;-42
2022/04/07 03:51:03;;;;;;;21.35;4.57;;;9.10;99.90;;;;;;5137627;27;20442;-42
2022/04/07 03:53:29;;;;;;;17.17;4.32;;;9.10;99.90;;;;;;5119421;27;20126;-42
2022/04/07 03:55:55;;;;;;;24.38;4.13;;;9.10;99.90;;;;;;5137201;27;20492;-42
2022/04/07 03:58:21;;;;;;;19.83;3.33;;;9.00;1.00;;;;;;5119658;27;20051;-42
2022/04/07 04:00:47;;;;;;;14.65;3.25;;;8.90;37.10;;;;;;5137383;27;20054;-42
2022/04/07 04:03:13;;;;;;;19.17;4.03;;;8.80;99.90;;;;;;5119037;27;20150;-42
2022/04/07 04:05:39;;;;;;;17.27;3.50;;;8.60;99.90;;;;;;5137348;27;20055;-42
2022/04/07 04:08:05;;;;;;;18.13;2.58;;;8.60;99.90;;;;;;5137256;27;20118;-42
2022/04/07 04:10:30;;;;;;;24.35;3.95;;;8.50;1.00;;;;;;5137245;27;20043;-40
2022/04/07 04:12:56;;;;;;;25.75;4.95;;;8.50;1.00;;;;;;5137230;27;20053;-39
2022/04/07 04:15:22;;;;;;;19.80;4.78;;;8.40;1.00;;;;;;5119395;27;20051;-39
2022/04/07 04:17:48;;;;;;;21.50;5.18;;;8.40;1.00;;;;;;5119065;27;20039;-39
2022/04/07 04:20:14;;;;;;;31.58;5.40;;;8.40;1.00;;;;;;5118610;27;20043;-37
2022/04/07 04:22:40;;;;;;;20.35;3.22;;;8.40;1.00;;;;;;5137533;27;20039;-35
2022/04/07 04:25:08;;;;;;;17.08;3.10;;;8.30;70.20;;;;;;5137518;27;20079;-36
2022/04/07 04:27:34;;;;;;;25.48;4.47;;;8.30;99.90;;;;;;5136998;27;20089;-33
2022/04/07 04:30:00;;;;;;;33.55;5.07;;;8.30;99.90;;;;;;5136563;27;20508;-33
2022/04/07 04:32:26;;;;;;;21.77;4.75;;;8.30;99.90;;;;;;5118452;27;20054;-33
2022/04/07 04:34:51;;;;;;;25.95;4.15;;;8.20;99.90;;;;;;5136968;27;20163;-33
2022/04/07 04:37:17;;;;;;;21.40;4.78;;;8.30;99.90;;;;;;5118111;27;20411;-33
2022/04/07 04:39:43;;;;;;;34.10;5.85;;;8.30;81.20;;;;;;5118382;27;20043;-33
2022/04/07 04:42:09;;;;;;;34.38;5.97;;;8.30;72.50;;;;;;5118191;27;20108;-33
2022/04/07 04:44:35;;;;;;;33.67;4.93;;;8.30;95.60;;;;;;5136875;27;20047;-33
2022/04/07 04:47:00;;;;;;;36.80;7.13;;;8.20;99.90;;;;;;5137346;27;20043;-33
2022/04/07 04:49:26;;;;;;;27.08;4.35;;;8.30;99.90;;;;;;5136448;27;20403;-33
2022/04/07 04:51:52;;;;;;;27.13;5.03;;;8.20;99.90;;;;;;5101005;27;20050;-33
2022/04/07 04:54:18;;;;;;;33.58;4.78;;;8.30;99.90;;;;;;5136281;27;20046;-33
2022/04/07 04:56:44;;;;;;;31.90;7.03;;;8.20;99.90;;;;;;5136334;27;20039;-33
2022/04/07 04:59:10;;;;;;;39.20;5.63;;;8.20;99.90;;;;;;5136277;27;20050;-34
2022/04/07 05:01:35;;;;;;;23.75;4.82;;;8.20;99.90;;;;;;5136748;27;20039;-33
2022/04/07 05:04:01;;;;;;;27.77;5.20;;;8.20;99.90;;;;;;5116598;27;20051;-32
2022/04/07 05:06:27;;;;;;;37.08;5.22;;;8.20;99.90;;;;;;5117868;27;20098;-32
2022/04/07 05:08:52;;;;;;;24.83;4.75;;;8.10;99.90;;;;;;5136046;27;20135;-31
2022/04/07 05:11:18;;;;;;;28.33;4.38;;;8.10;99.90;;;;;;5136900;27;20421;-33
2022/04/07 05:13:44;;;;;;;26.70;4.65;;;8.10;99.90;;;;;;5135983;27;20055;-32
2022/04/07 05:16:15;;;;;;;19.40;4.07;;;8.00;99.90;;;;;;5135904;27;20047;-32
2022/04/07 05:18:46;;;;;;;19.90;4.15;;;7.90;99.90;;;;;;5135976;27;20054;-32
2022/04/07 05:21:14;;;;;;;18.60;3.47;;;7.90;99.90;;;;;;5117376;27;20126;-32
2022/04/07 05:23:40;;;;;;;17.27;2.80;;;7.80;99.90;;;;;;5136100;27;20050;-32
2022/04/07 05:26:05;;;;;;;10.23;2.30;;;7.50;99.90;;;;;;5136009;27;20047;-31
2022/04/07 05:28:31;;;;;;;7.63;1.85;;;6.90;1.00;;;;;;5135668;27;20043;-32
2022/04/07 05:30:57;;;;;;;11.88;2.25;;;6.70;1.00;;;;;;5117045;27;20054;-31
2022/04/07 05:33:23;;;;;;;18.73;2.50;;;6.40;39.60;;;;;;5135569;27;20096;-33
2022/04/07 05:35:48;;;;;;;13.85;3.30;;;6.30;99.90;;;;;;5135521;27;20555;-33
2022/04/07 05:38:14;;;;;;;13.50;3.22;;;6.30;99.90;;;;;;5135303;27;20043;-32
2022/04/07 05:40:40;;;;;;;11.10;2.22;;;6.30;99.90;;;;;;5135399;27;20043;-35
2022/04/07 05:43:06;;;;;;;12.07;2.08;;;6.30;99.90;;;;;;5135936;27;20122;-33
2022/04/07 05:45:32;;;;;;;6.30;1.33;;;6.10;99.90;;;;;;5135024;27;20047;-34
2022/04/07 05:47:57;;;;;;;8.80;1.67;;;5.80;51.60;;;;;;5100157;27;20176;-33
2022/04/07 05:50:23;;;;;;;5.47;1.10;;;5.60;1.00;;;;;;5135240;27;20389;-33
2022/04/07 05:52:49;;;;;;;6.93;1.45;;;5.50;1.00;;;;;;5135510;27;20046;-33
2022/04/07 05:55:14;;;;;;;6.03;0.85;;;5.30;1.00;;;;;;5116902;27;20143;-34
2022/04/07 05:57:40;;;;;;;4.50;0.90;;;5.20;1.00;;;;;;5135119;27;20039;-35
2022/04/07 06:00:11;;;;;;;3.58;0.88;;;4.90;1.00;;;;;;5135568;27;20036;-33
2022/04/07 06:02:37;;;;;;;5.43;0.88;;;5.00;64.20;;;;;;5117324;27;20132;-32
2022/04/07 06:05:05;;;;;;;4.43;1.13;;;4.90;99.90;;;;;;5135338;27;20051;-33
2022/04/07 06:07:30;;;;;;;6.90;1.25;;;5.10;99.90;;;;;;5116581;27;20138;-33
2022/04/07 06:09:56;;;;;;;5.80;0.95;;;4.90;99.90;;;;;;5134653;27;20122;-34
2022/04/07 06:12:22;;;;;;;9.25;1.42;;;4.90;99.90;;;;;;5134914;27;20047;-33
2022/04/07 06:14:47;;;;;;;6.18;1.17;;;5.10;99.90;;;;;;5134783;27;20054;-32
2022/04/07 06:17:13;;;;;;;3.92;0.40;;;4.90;99.90;;;;;;5116477;27;20043;-32
2022/04/07 06:19:39;;;;;;;4.45;1.63;;;5.00;99.90;;;;;;5134823;27;20047;-33
2022/04/07 06:22:07;;;;;;;7.15;0.85;;;5.10;99.90;;;;;;5082214;27;20403;-33
2022/04/07 06:24:33;;;;;;;5.25;0.82;;;4.90;99.90;;;;;;5117415;27;20373;-33
2022/04/07 06:26:59;;;;;;;9.38;2.15;;;4.80;99.90;;;;;;5134820;27;20061;-34
2022/04/07 06:29:25;;;;;;;5.45;0.70;;;4.90;99.90;;;;;;5116294;27;20047;-33
2022/04/07 06:31:51;;;;;;;7.75;1.05;;;4.80;99.90;;;;;;5134647;27;20039;-31
2022/04/07 06:34:20;;;;;;;6.43;0.77;;;4.90;99.90;;;;;;5134520;27;20050;-31
2022/04/07 06:36:47;;;;;;;7.72;1.08;;;4.80;99.90;;;;;;5135137;28;20051;-31
2022/04/07 06:39:13;;;;;;;5.35;0.70;;;4.80;99.90;;;;;;5116552;28;20043;-33
2022/04/07 06:41:39;;;;;;;4.63;0.50;;;4.70;99.90;;;;;;5134728;28;20053;-31
2022/04/07 06:44:05;;;;;;;9.25;1.15;;;4.80;99.90;;;;;;5116800;28;20082;-32
2022/04/07 06:46:32;;;;;;;7.15;1.00;;;4.90;99.90;;;;;;5134507;28;20139;-32
2022/04/07 06:48:59;;;;;;;3.65;0.68;;;4.80;99.90;;;;;;5135097;28;20461;-31
2022/04/07 06:51:25;;;;;;;7.43;1.02;;;4.80;99.90;;;;;;5116386;28;20043;-31
2022/04/07 06:53:50;;;;;;;4.13;0.47;;;5.00;99.90;;;;;;5115771;28;20104;-31
2022/04/07 06:56:16;;;;;;;3.60;0.65;;;4.90;99.90;;;;;;5134407;28;20166;-31
2022/04/07 06:58:42;;;;;;;4.80;0.80;;;4.80;99.90;;;;;;5117117;28;20054;-31
2022/04/07 07:01:08;;;;;;;7.32;1.08;;;4.90;99.90;;;;;;5134320;28;20047;-31
2022/04/07 07:03:34;;;;;;;5.13;0.32;;;5.00;99.90;;;;;;5115885;28;20061;-31
2022/04/07 07:06:00;;;;;;;3.08;0.80;;;4.90;99.90;;;;;;5134927;28;20130;-31
2022/04/07 07:08:26;;;;;;;8.25;1.73;;;5.00;99.90;;;;;;5134535;28;20094;-31
2022/04/07 07:10:52;;;;;;;5.10;0.60;;;5.00;99.90;;;;;;5134275;28;20078;-31
2022/04/07 07:13:21;;;;;;;4.00;0.90;;;5.00;99.90;;;;;;5135054;28;20097;-30
2022/04/07 07:15:48;;;;;;;4.28;0.88;;;5.10;99.90;;;;;;5134293;28;20518;-31
2022/04/07 07:18:13;;;;;;;3.47;0.60;;;5.10;99.90;;;;;;5134208;28;20050;-31
2022/04/07 07:20:39;;;;;;;6.32;0.90;;;5.20;99.90;;;;;;5134685;28;20036;-32
2022/04/07 07:23:06;;;;;;;6.95;0.90;;;5.20;99.90;;;;;;5099051;28;20138;-31
2022/04/07 07:25:32;;;;;;;8.63;0.90;;;5.30;99.90;;;;;;5134433;28;20091;-31
2022/04/07 07:27:59;;;;;;;6.18;0.57;;;5.30;99.90;;;;;;5118216;27;20043;-31
2022/04/07 07:30:25;;;;;;;3.58;1.00;;;5.30;99.90;;;;;;5119909;27;20062;-32
2022/04/07 07:32:51;;;;;;;4.68;1.10;;;5.20;99.90;;;;;;5119640;27;20043;-31
2022/04/07 07:35:18;;;;;;;4.60;0.68;;;5.30;99.90;;;;;;5137915;27;20422;-32
2022/04/07 07:37:52;;;;;;;4.47;0.75;;;5.30;99.90;;;;;;5102399;27;20058;-32
2022/04/07 07:40:21;;;;;;;5.10;0.80;;;5.30;99.90;;;;;;5138060;27;20050;-31
2022/04/07 07:42:53;;;;;;;8.05;1.15;;;5.30;99.90;;;;;;5137814;27;20054;-31
2022/04/07 07:45:18;;;;;;;3.67;0.80;;;5.30;99.90;;;;;;5138573;27;20043;-32
2022/04/07 07:47:44;;;;;;;5.15;0.60;;;5.30;99.90;;;;;;5102605;27;20571;-32
2022/04/07 07:50:11;;;;;;;6.85;1.10;;;5.50;99.90;;;;;;5138138;27;20051;-32
2022/04/07 07:52:37;;;;;;;5.05;0.80;;;5.60;82.60;;;;;;5119736;27;20051;-31
2022/04/07 07:55:03;;;;;;;4.45;0.88;;;5.70;61.20;;;;;;5137440;27;20043;-31
2022/04/07 07:57:30;;;;;;;5.40;1.23;;;5.70;1.00;;;;;;5137508;27;20104;-32
2022/04/07 07:59:57;;;;;;;5.18;0.68;;;6.00;99.90;;;;;;5137393;27;20054;-32
2022/04/07 08:02:23;;;;;;;5.95;1.52;;;6.00;99.90;;;;;;5085493;27;20051;-32
2022/04/07 08:04:49;;;;;;;5.85;0.98;;;6.10;99.90;;;;;;5098065;28;20558;-33
2022/04/07 08:07:15;;;;;;;3.75;0.52;;;6.20;99.90;;;;;;5117285;28;20069;-32
2022/04/07 08:09:41;;;;;;;5.10;0.70;;;6.30;99.90;;;;;;5116717;28;20040;-32
2022/04/07 08:12:07;;;;;;;5.00;0.98;;;6.40;99.90;;;;;;5115442;28;20051;-33
2022/04/07 08:14:33;;;;;;;11.68;1.40;;;6.30;1.00;;;;;;5098351;28;20047;-31
2022/04/07 08:16:59;;;;;;;6.35;0.70;;;6.30;1.00;;;;;;5115417;28;20044;-33
2022/04/07 08:19:25;;;;;;;6.35;0.65;;;6.50;1.00;;;;;;5115489;28;20039;-32
2022/04/07 08:21:51;;;;;;;9.40;1.40;;;6.80;99.90;;;;;;5115263;28;20096;-33
2022/04/07 08:24:19;;;;;;;5.32;0.93;;;7.20;99.90;;;;;;5116433;28;20123;-33
2022/04/07 08:26:45;;;;;;;5.20;0.82;;;7.40;99.90;;;;;;5116724;28;20051;-32
2022/04/07 08:29:11;;;;;;;2.58;1.05;;;7.60;1.00;;;;;;5116353;27;20039;-32
2022/04/07 08:31:36;;;;;;;3.78;0.80;;;7.70;1.00;;;;;;5116248;28;20051;-33
2022/04/07 08:34:02;;;;;;;3.83;1.10;;;7.80;1.00;;;;;;5115716;28;20054;-32
2022/04/07 08:36:28;;;;;;;6.82;1.42;;;7.80;1.00;;;;;;5116146;28;20481;-33
2022/04/07 08:38:54;;;;;;;8.25;2.03;;;8.00;1.00;;;;;;5114010;28;20043;-33
2022/04/07 08:41:21;;;;;;;7.32;1.00;;;8.00;1.00;;;;;;5116546;28;20404;-33
2022/04/07 08:43:46;;;;;;;6.15;1.08;;;8.10;99.90;;;;;;5115423;28;20126;-34
2022/04/07 08:46:13;;;;;;;2.90;0.70;;;8.30;99.90;;;;;;5115350;28;20131;-33
2022/04/07 08:48:43;;;;;;;4.65;1.08;;;8.20;99.90;;;;;;5115922;28;20043;-33
2022/04/07 08:51:11;;;;;;;4.10;0.68;;;8.40;99.90;;;;;;5115089;28;20119;-33
2022/04/07 08:53:40;;;;;;;7.07;0.90;;;8.40;99.90;;;;;;5097801;28;20055;-33
2022/04/07 08:56:07;;;;;;;3.10;1.10;;;8.50;99.90;;;;;;5116314;28;20046;-33
2022/04/07 08:58:33;;;;;;;5.53;1.10;;;8.60;99.90;;;;;;5115685;28;20513;-34
2022/04/07 09:00:59;;;;;;;5.15;0.85;;;8.60;99.90;;;;;;5116203;28;20156;-34
2022/04/07 09:03:25;;;;;;;6.78;1.00;;;8.90;99.90;;;;;;5115584;28;20076;-34
2022/04/07 09:05:57;;;;;;;7.05;1.48;;;9.00;99.90;;;;;;5097107;28;20519;-38
2022/04/07 09:08:34;;;;;;;4.70;0.73;;;8.90;99.90;;;;;;5116124;28;20047;-35
2022/04/07 09:11:02;;;;;;;6.40;1.10;;;9.00;99.90;;;;;;5114358;28;20055;-36
2022/04/07 09:13:39;;;;;;;6.97;0.95;;;9.40;99.90;;;;;;5116188;28;20097;-34
2022/04/07 09:16:13;;;;;;;12.45;1.25;;;9.50;99.90;;;;;;5115697;28;20043;-37
2022/04/07 09:18:40;;;;;;;3.08;0.88;;;9.50;99.90;;;;;;5116159;28;20436;-34
2022/04/07 09:21:08;;;;;;;7.63;1.10;;;9.30;99.90;;;;;;5115209;28;20055;-37
2022/04/07 09:23:38;;;;;;;6.47;1.58;;;9.40;99.90;;;;;;5114607;28;20122;-40
2022/04/07 09:26:04;;;;;;;7.35;1.58;;;9.10;99.90;;;;;;5115096;28;20113;-40
2022/04/07 09:28:31;;;;;;;6.13;1.27;;;9.20;99.90;;;;;;5115429;28;20051;-39
2022/04/07 09:31:00;;;;;;;8.23;1.45;;;9.10;99.90;;;;;;5115047;28;20046;-40
2022/04/07 09:33:28;;;;;;;4.72;1.40;;;9.00;99.90;;;;;;5113998;28;20100;-39
2022/04/07 09:35:59;;;;;;;9.55;1.48;;;9.00;99.90;;;;;;5114988;28;20378;-39
2022/04/07 09:38:26;;;;;;;7.38;1.52;;;9.00;99.90;;;;;;5113739;28;20044;-40
2022/04/07 09:40:52;;;;;;;6.63;1.63;;;9.10;99.90;;;;;;5115563;28;20074;-39
2022/04/07 09:43:18;;;;;;;22.08;2.10;;;9.30;99.90;;;;;;5114375;28;20520;-40
2022/04/07 09:45:47;;;;;;;8.60;1.70;;;9.20;99.90;;;;;;5113819;28;20051;-39
2022/04/07 09:48:19;;;;;;;10.70;1.52;;;9.10;99.90;;;;;;5114668;28;20043;-41
2022/04/07 09:51:07;;;;;;;10.05;2.17;;;9.10;99.90;;;;;;5113307;28;20043;-38
2022/04/07 09:53:39;;;;;;;6.03;1.40;;;8.90;99.90;;;;;;5096649;28;20066;-40
2022/04/07 09:56:06;;;;;;;10.85;1.58;;;8.80;99.90;;;;;;5115179;28;20047;-40
2022/04/07 09:58:33;;;;;;;5.45;1.55;;;8.80;99.90;;;;;;5113434;28;20081;-41
2022/04/07 10:01:04;;;;;;;8.77;2.00;;;8.50;99.90;;;;;;5113260;28;20100;-42
2022/04/07 10:03:30;;;;;;;12.02;1.98;;;8.40;99.90;;;;;;5114671;28;20043;-39
2022/04/07 10:05:59;;;;;;;7.43;1.35;;;8.50;99.90;;;;;;5117235;27;20426;-39
2022/04/07 10:08:26;;;;;;;13.32;2.58;;;8.80;99.90;;;;;;5134914;27;20495;-40
2022/04/07 10:10:53;;;;;;;12.85;2.78;;;9.20;99.90;;;;;;5116818;27;20078;-38
2022/04/07 10:13:20;;;;;;;10.73;2.20;;;9.40;99.90;;;;;;5134892;27;20419;-40
2022/04/07 10:15:47;;;;;;;6.88;1.42;;;9.60;99.90;;;;;;5134750;27;20035;-40
2022/04/07 10:18:28;;;;;;;7.75;2.03;;;9.20;1.00;;;;;;5134481;27;20499;-41
2022/04/07 10:20:57;;;;;;;10.55;1.65;;;8.70;20.00;;;;;;5134452;27;20484;-39
2022/04/07 10:23:41;;;;;;;6.68;1.83;;;8.30;99.90;;;;;;5134758;27;20051;-41
2022/04/07 10:26:11;;;;;;;14.85;1.95;;;7.80;99.90;;;;;;5135599;27;20099;-43
2022/04/07 10:28:36;;;;;;;13.35;1.67;;;7.40;1.00;;;;;;5135507;27;20043;-43
2022/04/07 10:31:13;;;;;;;8.20;1.98;;;6.90;1.00;;;;;;5134662;27;20039;-42
2022/04/07 10:33:40;;;;;;;12.48;2.08;;;6.40;1.00;;;;;;5134305;27;20050;-40
2022/04/07 10:36:18;;;;;;;6.53;1.98;;;6.50;1.00;;;;;;5134242;27;20446;-40
2022/04/07 10:38:50;;;;;;;11.35;2.53;;;6.80;10.40;;;;;;5135184;28;20434;-41
2022/04/07 10:41:38;;;;;;;14.00;2.17;;;7.00;1.00;;;;;;5134564;28;20082;-40
2022/04/07 10:44:24;;;;;;;11.57;3.05;;;7.20;12.30;;;;;;5135054;28;20108;-40
2022/04/07 10:47:00;;;;;;;11.45;2.03;;;7.40;1.00;;;;;;5116596;28;20050;-40
2022/04/07 10:49:26;;;;;;;9.18;2.10;;;7.50;1.00;;;;;;5135087;28;20126;-40
2022/04/07 10:51:57;;;;;;;7.78;1.73;;;7.90;99.90;;;;;;5116889;28;20430;-41
2022/04/07 10:54:24;;;;;;;15.77;2.85;;;8.20;99.90;;;;;;5134405;28;20090;-41
2022/04/07 10:56:52;;;;;;;8.30;1.35;;;8.30;1.00;;;;;;5116567;28;20134;-40
2022/04/07 10:59:20;;;;;;;6.60;1.63;;;8.40;1.00;;;;;;5116308;28;20480;-41
2022/04/07 11:01:46;;;;;;;13.30;2.45;;;8.30;99.90;;;;;;5116290;27;20057;-42
2022/04/07 11:04:20;;;;;;;12.05;2.42;;;8.30;99.90;;;;;;5138301;27;20090;-42
2022/04/07 11:09:53;;;;;;;12.13;2.28;;;8.00;1.00;;;;;;5125237;27;20055;-42
2022/04/07 11:12:29;;;;;;;15.07;1.90;;;8.50;1.00;;;;;;5138987;27;20058;-43
2022/04/07 11:15:01;;;;;;;20.10;3.60;;;9.10;99.90;;;;;;5120612;27;20049;-42
2022/04/07 11:17:35;;;;;;;6.22;1.85;;;9.40;99.90;;;;;;5138443;27;20043;-42
2022/04/07 11:20:22;;;;;;;17.10;2.47;;;9.50;99.90;;;;;;5139020;27;20392;-42
2022/04/07 11:23:05;;;;;;;15.95;2.45;;;9.50;99.90;;;;;;5119725;27;20488;-42
2022/04/07 11:25:38;;;;;;;;;;;9.30;99.90;;;;;;5120460;27;20043;-43
2022/04/07 11:28:13;;;;;;;11.43;1.98;;;9.10;99.90;;;;;;5138024;27;20326;-42
2022/04/07 11:30:51;;;;;;;10.60;2.67;;;9.00;99.90;;;;;;5119486;27;20111;-42
2022/04/07 11:33:20;;;;;;;10.05;1.90;;;9.10;99.90;;;;;;5137535;27;20512;-43
2022/04/07 11:36:00;;;;;;;9.85;1.65;;;9.10;99.90;;;;;;5137903;27;20058;-42
2022/04/07 11:38:46;;;;;;;10.00;2.25;;;9.10;99.90;;;;;;5138417;27;20051;-43
2022/04/07 11:41:14;;;;;;;11.35;2.90;;;9.20;99.90;;;;;;5102492;27;20043;-42
2022/04/07 11:43:42;;;;;;;12.60;2.63;;;9.20;51.30;;;;;;5137680;27;20047;-43
2022/04/07 11:46:09;;;;;;;14.27;2.63;;;9.30;99.90;;;;;;5138004;27;20047;-43
2022/04/07 11:48:38;;;;;;;10.05;1.75;;;9.50;32.00;;;;;;5137674;27;20043;-41
2022/04/07 11:51:12;;;;;;;11.30;2.72;;;9.60;99.90;;;;;;5120216;27;20051;-42
2022/04/07 11:53:44;;;;;;;9.52;2.08;;;9.70;1.00;;;;;;5138072;27;20043;-42
2022/04/07 11:56:20;;;;;;;7.65;1.95;;;9.50;43.50;;;;;;5137523;27;20051;-43
2022/04/07 11:59:04;;;;;;;8.98;1.90;;;9.40;1.00;;;;;;5138015;27;20087;-42
2022/04/07 12:01:31;;;;;;;6.28;1.33;;;9.30;13.20;;;;;;5137673;27;20088;-42
2022/04/07 12:04:00;;;;;;;10.55;2.30;;;9.30;33.30;;;;;;5119026;27;20078;-42
2022/04/07 12:06:30;;;;;;;7.85;2.08;;;9.40;13.40;;;;;;5130473;27;20063;-43
2022/04/07 12:08:57;;;;;;;9.18;2.30;;;9.40;34.40;;;;;;5115043;28;20408;-43
2022/04/07 12:11:25;;;;;;;8.55;2.00;;;9.60;1.00;;;;;;5116560;28;20507;-42
2022/04/07 12:13:52;;;;;;;8.82;1.73;;;9.60;1.00;;;;;;5064553;28;20047;-43
2022/04/07 12:16:19;;;;;;;9.85;1.08;;;9.60;1.00;;;;;;5116576;28;20134;-43
2022/04/07 12:19:01;;;;;;;12.10;2.60;;;9.40;1.00;;;;;;5116470;28;20039;-44
2022/04/07 12:21:29;;;;;;;8.23;2.47;;;8.60;99.90;;;;;;5116401;28;20128;-42
2022/04/07 12:24:09;;;;;;;6.88;1.10;;;6.80;1.00;;;;;;5116912;28;20044;-41
2022/04/07 12:26:46;;;;;;;7.65;1.88;;;6.40;99.90;;;;;;5116316;28;20048;-40
2022/04/07 12:29:16;;;;;;;6.30;1.17;;;6.40;99.90;;;;;;5116939;28;20114;-41
2022/04/07 12:31:42;;;;;;;1.45;0.77;;;6.30;89.10;;;;;;5116293;28;20047;-42
2022/04/07 12:34:12;;;;;;;3.22;0.90;;;6.10;1.00;;;;;;5116604;28;20055;-42
2022/04/07 12:36:42;;;;;;;5.03;1.55;;;6.30;99.90;;;;;;5116101;28;20050;-43
2022/04/07 12:39:18;;;;;;;4.00;1.63;;;6.90;99.90;;;;;;5116066;28;20083;-42
2022/04/07 12:41:50;;;;;;;10.23;2.47;;;7.90;99.90;;;;;;5115949;28;20140;-40
2022/04/07 12:44:33;;;;;;;8.48;2.70;;;8.50;10.30;;;;;;5116644;28;20054;-41
2022/04/07 12:47:06;;;;;;;13.30;2.78;;;8.80;99.90;;;;;;5099905;28;20058;-42
2022/04/07 12:49:34;;;;;;;9.93;1.88;;;8.90;1.00;;;;;;5116516;28;20043;-42
2022/04/07 12:52:08;;;;;;;8.93;2.55;;;9.00;99.90;;;;;;5115844;28;20043;-43
2022/04/07 12:54:34;;;;;;;10.02;2.00;;;8.80;99.90;;;;;;5115787;28;20130;-42
2022/04/07 12:57:14;;;;;;;9.35;2.58;;;8.60;99.90;;;;;;5115707;28;20051;-42
2022/04/07 13:00:06;;;;;;;18.77;3.88;;;8.50;99.90;;;;;;5080739;28;20080;-43
2022/04/07 13:02:48;;;;;;;7.80;1.95;;;8.60;99.90;;;;;;5115597;28;20039;-43